Details for Olympic Air at LGAV




Go Back


Latest METAR
Local Time

LGAV 061720Z 02022G32KT 9999 SCT025 BKN070 09/04 Q1022 NOSIG
06/04/2020, 20:52:30

Description
Results
Olympic Air Logo
Number of Pilots based at LGAV
0 Pilots Based here
Number of Olympic Air Flights Departed from LGAV
9 Flights Departed
Number of Olympic Air Flights Arrived at LGAV
10 Flights Arrived
Number of Olympic Air Schedules Departing from LGAV
44 Schedules
Number of Olympic Air Schedules Arriving at LGAV
44 Schedules
Number of Olympic Air Schedules Departing from LGAV availible today
25 Schedules Today
Number of Olympic Air Schedules Arriving at LGAV availible today
27 Schedules Today
Average Landing Rate at LGAV
-155 fpm
Olympic Air Average Landing Rate at LGAV
-121 fpm
Total Fuel Purchased at LGAV by Olympic Air
6,219.66 kgs / 13,711.86 lbs

Pilots Based at LGAV


Pilot ID
Pilot Name
Pilot Rank
No. of Flights
No. of Flying Hours
There are no pilots assigned to this hub!   Will you be the first?